Time;durP1;ratioP1;P1;durP2;ratioP2;P2;SDS_P1;SDS_P2;PMS_P1;PMS_P2;Temp;Humidity;BMP_temperature;BMP_pressure;BME280_temperature;BME280_humidity;BME280_pressure;Samples;Min_cycle;Max_cycle;Signal;HPM_P1;HPM_P2
2023/03/30 00:02:05;;;;;;;10.35;2.10;;;12.00;69.00;;;;;;5073071;28;20194;-70
2023/03/30 00:04:41;;;;;;;10.32;2.17;;;12.10;68.60;;;;;;5072017;28;20212;-70
2023/03/30 00:07:09;;;;;;;3.33;1.60;;;12.20;67.90;;;;;;5072607;28;20204;-70
2023/03/30 00:09:41;;;;;;;6.97;2.65;;;12.20;68.20;;;;;;5072079;28;20229;-70
2023/03/30 00:12:19;;;;;;;3.85;2.20;;;12.20;68.20;;;;;;5072473;28;20194;-69
2023/03/30 00:14:55;;;;;;;8.10;3.40;;;12.30;67.80;;;;;;5071881;28;20229;-72
2023/03/30 00:17:27;;;;;;;6.15;2.80;;;12.30;67.70;;;;;;5072074;28;20192;-70
2023/03/30 00:19:54;;;;;;;11.98;2.30;;;12.30;67.70;;;;;;5067811;28;20312;-73
2023/03/30 00:22:22;;;;;;;4.53;1.90;;;12.30;67.40;;;;;;5072185;28;20737;-70
2023/03/30 00:24:54;;;;;;;5.40;1.80;;;12.30;67.50;;;;;;5071738;28;20251;-73
2023/03/30 00:27:23;;;;;;;7.22;2.42;;;12.30;67.40;;;;;;5072146;28;20247;-70
2023/03/30 00:29:50;;;;;;;3.10;1.90;;;12.30;67.70;;;;;;5071597;28;20277;-70
2023/03/30 00:32:23;;;;;;;3.80;1.70;;;12.20;67.50;;;;;;5072099;28;20201;-69
2023/03/30 00:34:51;;;;;;;7.00;2.10;;;12.20;67.80;;;;;;5071401;28;20275;-70
2023/03/30 00:37:18;;;;;;;7.20;1.70;;;12.20;67.70;;;;;;5071435;28;20644;-70
2023/03/30 00:39:46;;;;;;;4.72;2.13;;;12.20;67.80;;;;;;5071511;28;20303;-70
2023/03/30 00:42:16;;;;;;;6.28;1.80;;;12.10;67.80;;;;;;5071885;28;20193;-70
2023/03/30 00:45:18;;;;;;;9.38;2.05;;;12.10;67.80;;;;;;5071497;28;20255;-70
2023/03/30 00:47:54;;;;;;;6.05;2.40;;;12.10;67.90;;;;;;4990547;28;20199;-70
2023/03/30 00:50:26;;;;;;;8.25;2.00;;;12.00;67.80;;;;;;5059422;28;20641;-70
2023/03/30 00:53:05;;;;;;;9.32;2.60;;;12.10;67.60;;;;;;5071947;28;20194;-70
2023/03/30 00:55:38;;;;;;;10.82;2.00;;;12.20;67.50;;;;;;5068669;28;20276;-70
2023/03/30 00:58:08;;;;;;;7.50;2.20;;;12.30;67.30;;;;;;5071618;28;20198;-69
2023/03/30 01:00:38;;;;;;;8.57;3.58;;;12.30;67.10;;;;;;5071589;28;20726;-69
2023/03/30 01:03:15;;;;;;;5.05;1.88;;;12.30;67.10;;;;;;5067277;28;20193;-73
2023/03/30 01:05:48;;;;;;;6.88;1.75;;;12.20;67.40;;;;;;5068165;28;20197;-70
2023/03/30 01:08:17;;;;;;;8.05;1.58;;;12.20;67.00;;;;;;5070994;28;20229;-73
2023/03/30 01:10:45;;;;;;;7.00;2.53;;;12.30;67.10;;;;;;5071841;28;20247;-70
2023/03/30 01:13:13;;;;;;;5.00;1.60;;;12.20;67.00;;;;;;5071422;28;20197;-71
2023/03/30 01:15:54;;;;;;;8.88;2.30;;;12.20;67.00;;;;;;5071400;28;20289;-69
2023/03/30 01:18:34;;;;;;;7.18;2.05;;;12.20;67.10;;;;;;5071324;28;20540;-70
2023/03/30 01:21:42;;;;;;;8.73;3.35;;;12.30;66.70;;;;;;5068085;28;20284;-70
2023/03/30 01:24:57;;;;;;;8.20;1.85;;;12.30;66.80;;;;;;5063991;28;20189;-70
2023/03/30 01:28:03;;;;;;;8.70;2.08;;;12.50;66.70;;;;;;5071017;28;20610;-70
2023/03/30 01:30:51;;;;;;;4.68;2.15;;;12.50;66.90;;;;;;5070018;28;20294;-70
2023/03/30 01:33:37;;;;;;;4.25;2.05;;;12.50;66.50;;;;;;5067915;28;20243;-71
2023/03/30 01:36:47;;;;;;;6.40;2.05;;;12.50;66.50;;;;;;5071120;28;20304;-70
2023/03/30 01:39:32;;;;;;;5.45;2.00;;;12.40;66.40;;;;;;5068654;28;20224;-70
2023/03/30 01:42:04;;;;;;;5.25;1.70;;;12.40;67.10;;;;;;5071349;28;20662;-71
2023/03/30 01:44:41;;;;;;;4.22;1.45;;;12.30;67.50;;;;;;5070844;28;20194;-70
2023/03/30 01:47:17;;;;;;;6.72;3.55;;;12.40;67.80;;;;;;5068444;28;20247;-70
2023/03/30 01:49:51;;;;;;;4.32;1.35;;;12.40;68.20;;;;;;5075099;28;20220;-70
2023/03/30 01:52:24;;;;;;;3.90;2.20;;;12.50;67.80;;;;;;5075185;28;20730;-70
2023/03/30 01:54:58;;;;;;;12.15;2.65;;;12.50;67.30;;;;;;5073415;28;20193;-70
2023/03/30 01:57:34;;;;;;;9.38;2.65;;;12.60;66.80;;;;;;5075102;28;20270;-70
2023/03/30 02:00:13;;;;;;;12.80;3.08;;;12.60;66.50;;;;;;5074664;28;20221;-70
2023/03/30 02:02:47;;;;;;;4.15;2.20;;;12.80;66.50;;;;;;5070757;28;20679;-71
2023/03/30 02:05:17;;;;;;;12.13;1.90;;;12.90;65.70;;;;;;5072945;28;20275;-70
2023/03/30 02:07:52;;;;;;;8.98;2.60;;;13.00;65.60;;;;;;5074361;28;20474;-70
2023/03/30 02:10:24;;;;;;;9.40;2.55;;;13.10;65.60;;;;;;5075085;28;20558;-70
2023/03/30 02:12:59;;;;;;;6.22;3.67;;;13.10;65.80;;;;;;5074639;28;20189;-70
2023/03/30 02:15:33;;;;;;;8.13;2.55;;;13.10;66.10;;;;;;5074250;28;20204;-70
2023/03/30 02:18:01;;;;;;;5.60;1.93;;;13.00;66.70;;;;;;5070233;28;20201;-70
2023/03/30 02:20:30;;;;;;;10.38;4.60;;;13.10;68.10;;;;;;5074638;28;20487;-70
2023/03/30 02:22:58;;;;;;;5.47;2.50;;;13.00;68.80;;;;;;5074136;28;20233;-70
2023/03/30 02:25:27;;;;;;;8.77;2.17;;;13.00;69.50;;;;;;5073799;28;20255;-70
2023/03/30 02:27:55;;;;;;;12.50;3.00;;;13.00;69.80;;;;;;5074133;28;21039;-70
2023/03/30 02:30:33;;;;;;;7.37;2.93;;;13.00;71.10;;;;;;5073871;28;20190;-70
2023/03/30 02:33:00;;;;;;;3.97;1.73;;;13.00;72.50;;;;;;5074228;28;20933;-70
2023/03/30 02:35:45;;;;;;;6.50;2.22;;;12.90;73.00;;;;;;5073515;28;20432;-70
2023/03/30 02:38:39;;;;;;;3.88;2.08;;;12.90;74.60;;;;;;5070924;28;20189;-69
2023/03/30 02:41:19;;;;;;;6.00;2.38;;;12.90;75.10;;;;;;5073856;28;20672;-70
2023/03/30 02:43:58;;;;;;;5.90;2.83;;;12.90;75.80;;;;;;5070623;28;20244;-70
2023/03/30 02:46:47;;;;;;;7.50;2.40;;;12.80;77.30;;;;;;5071739;28;20513;-70
2023/03/30 02:49:19;;;;;;;5.13;1.90;;;12.70;78.30;;;;;;5074224;28;20276;-70
2023/03/30 02:51:51;;;;;;;7.50;2.97;;;12.80;76.30;;;;;;5070356;28;20716;-70
2023/03/30 02:54:30;;;;;;;9.02;2.25;;;12.70;76.50;;;;;;5070350;28;20201;-70
2023/03/30 02:57:07;;;;;;;7.78;1.95;;;12.70;77.90;;;;;;5070910;28;20190;-70
2023/03/30 02:59:41;;;;;;;4.05;2.10;;;12.60;78.30;;;;;;5073144;28;20217;-70
2023/03/30 03:02:14;;;;;;;5.97;2.03;;;12.50;78.40;;;;;;5073927;28;20229;-70
2023/03/30 03:04:45;;;;;;;5.00;1.50;;;12.60;78.70;;;;;;5070732;28;20203;-70
2023/03/30 03:07:16;;;;;;;7.65;2.67;;;12.60;78.90;;;;;;5069904;28;20194;-70
2023/03/30 03:09:43;;;;;;;5.45;2.22;;;12.60;79.20;;;;;;5073531;28;20194;-70
2023/03/30 03:12:12;;;;;;;5.22;1.75;;;12.60;78.40;;;;;;5073466;28;20244;-70
2023/03/30 03:14:42;;;;;;;8.98;3.42;;;12.50;78.80;;;;;;5073151;28;20208;-70
2023/03/30 03:17:12;;;;;;;8.05;2.40;;;12.50;79.30;;;;;;5073341;28;20185;-69
2023/03/30 03:19:40;;;;;;;7.53;2.25;;;12.60;80.30;;;;;;5073305;28;20317;-70
2023/03/30 03:22:12;;;;;;;10.02;3.35;;;12.50;80.70;;;;;;5073130;28;20193;-69
2023/03/30 03:24:45;;;;;;;13.30;3.67;;;12.40;81.70;;;;;;5070797;28;20201;-69
2023/03/30 03:27:16;;;;;;;10.00;2.65;;;12.40;82.40;;;;;;5072721;28;20233;-70
2023/03/30 03:29:43;;;;;;;10.73;2.97;;;12.30;82.40;;;;;;5073326;28;20193;-69
2023/03/30 03:32:11;;;;;;;7.07;2.47;;;12.30;82.40;;;;;;5072647;28;20648;-70
2023/03/30 03:34:49;;;;;;;3.50;1.95;;;12.40;82.40;;;;;;5072863;28;20247;-70
2023/03/30 03:37:22;;;;;;;7.03;2.67;;;12.40;82.00;;;;;;5073225;28;20255;-69
2023/03/30 03:39:54;;;;;;;5.90;2.67;;;12.40;82.00;;;;;;5072813;28;20227;-70
2023/03/30 03:42:23;;;;;;;8.82;2.83;;;12.50;82.30;;;;;;5071945;28;20575;-70
2023/03/30 03:44:50;;;;;;;3.63;2.50;;;12.50;82.70;;;;;;5072258;28;20655;-70
2023/03/30 03:47:18;;;;;;;5.43;2.05;;;12.50;83.30;;;;;;5073145;28;20190;-70
2023/03/30 03:49:50;;;;;;;9.02;2.63;;;12.50;84.10;;;;;;5072819;28;20728;-70
2023/03/30 03:52:22;;;;;;;9.55;2.60;;;12.40;85.50;;;;;;5072744;28;20662;-70
2023/03/30 03:54:54;;;;;;;8.93;2.00;;;12.40;85.30;;;;;;5072577;28;20619;-70
2023/03/30 03:57:23;;;;;;;4.40;2.35;;;12.40;85.90;;;;;;5072317;28;20244;-70
2023/03/30 03:59:53;;;;;;;7.05;2.42;;;12.40;86.20;;;;;;5072367;28;20320;-76
2023/03/30 04:02:31;;;;;;;8.70;2.55;;;12.40;86.50;;;;;;5068065;28;20271;-70
2023/03/30 04:05:01;;;;;;;9.18;2.72;;;12.40;86.70;;;;;;5068381;28;20194;-70
2023/03/30 04:07:35;;;;;;;8.93;2.55;;;12.30;87.30;;;;;;5072609;28;20197;-71
2023/03/30 04:10:10;;;;;;;7.63;3.30;;;12.40;87.80;;;;;;5068917;28;20709;-70
2023/03/30 04:12:50;;;;;;;7.32;2.63;;;12.30;88.40;;;;;;5072316;28;20197;-70
2023/03/30 04:15:18;;;;;;;8.18;2.63;;;12.30;89.00;;;;;;5071930;28;20235;-70
2023/03/30 04:17:56;;;;;;;12.73;3.38;;;12.40;89.60;;;;;;5072060;28;20291;-69
2023/03/30 04:20:34;;;;;;;8.32;3.15;;;12.30;90.10;;;;;;5072021;28;20770;-70
2023/03/30 04:23:02;;;;;;;7.57;2.97;;;12.30;90.40;;;;;;5072521;28;20201;-70
2023/03/30 04:25:32;;;;;;;5.25;2.60;;;12.40;90.40;;;;;;5071239;28;20272;-69
2023/03/30 04:28:03;;;;;;;8.35;3.20;;;12.40;90.50;;;;;;5068753;28;20263;-69
2023/03/30 04:30:31;;;;;;;6.10;2.25;;;12.40;90.50;;;;;;5068771;28;20182;-69
2023/03/30 04:33:03;;;;;;;10.40;2.60;;;12.40;90.70;;;;;;5067834;28;20193;-71
2023/03/30 04:35:32;;;;;;;10.07;3.85;;;12.30;91.00;;;;;;5067660;28;20239;-70
2023/03/30 04:38:00;;;;;;;9.95;3.83;;;12.40;91.30;;;;;;5068079;28;20194;-70
2023/03/30 04:40:28;;;;;;;6.63;2.22;;;12.40;91.70;;;;;;5071131;28;20221;-70
2023/03/30 04:43:02;;;;;;;7.53;3.17;;;12.30;92.00;;;;;;5072068;28;20648;-70
2023/03/30 04:45:35;;;;;;;13.48;3.20;;;12.30;92.60;;;;;;5071501;28;20318;-70
2023/03/30 04:48:03;;;;;;;15.73;3.30;;;12.30;93.00;;;;;;5068572;28;20198;-71
2023/03/30 04:50:33;;;;;;;13.27;3.97;;;12.30;93.50;;;;;;5071265;28;20186;-70
2023/03/30 04:53:00;;;;;;;11.38;3.00;;;12.20;93.90;;;;;;5064124;28;20284;-69
2023/03/30 04:55:28;;;;;;;9.60;2.83;;;12.30;94.90;;;;;;5071115;28;20211;-70
2023/03/30 04:57:55;;;;;;;19.17;4.32;;;12.20;94.60;;;;;;5069217;28;22354;-70
2023/03/30 05:00:27;;;;;;;10.77;4.43;;;12.20;94.90;;;;;;5069178;28;20300;-75
2023/03/30 05:02:56;;;;;;;10.00;4.68;;;12.20;95.00;;;;;;5070791;28;20292;-70
2023/03/30 05:05:26;;;;;;;27.98;17.52;;;12.20;95.40;;;;;;5071463;28;20251;-69
2023/03/30 05:07:56;;;;;;;7.32;4.13;;;12.20;95.40;;;;;;5062277;28;20342;-71
2023/03/30 05:10:26;;;;;;;16.92;9.77;;;12.20;95.40;;;;;;5068761;28;20644;-70
2023/03/30 05:12:54;;;;;;;18.20;13.30;;;12.20;95.70;;;;;;5067374;28;20189;-69
2023/03/30 05:15:24;;;;;;;10.73;4.80;;;12.20;96.00;;;;;;5066999;28;20549;-70
2023/03/30 05:17:54;;;;;;;13.00;6.95;;;12.20;96.30;;;;;;5067846;28;20621;-70
2023/03/30 05:20:22;;;;;;;25.15;8.02;;;12.10;96.50;;;;;;5069260;28;20221;-70
2023/03/30 05:22:50;;;;;;;11.10;4.22;;;12.00;96.90;;;;;;5071799;28;20202;-70
2023/03/30 05:25:18;;;;;;;8.95;5.63;;;12.10;97.30;;;;;;5075732;28;20194;-70
2023/03/30 05:27:49;;;;;;;7.28;2.80;;;12.00;97.70;;;;;;5071597;28;20190;-70
2023/03/30 05:30:21;;;;;;;8.00;3.60;;;12.10;97.90;;;;;;5075585;28;20251;-70
2023/03/30 05:32:48;;;;;;;8.77;3.03;;;12.10;98.10;;;;;;5074053;28;20186;-70
2023/03/30 05:35:16;;;;;;;7.85;3.75;;;12.20;98.00;;;;;;5075501;28;20582;-76
2023/03/30 05:37:48;;;;;;;7.18;2.97;;;12.20;98.10;;;;;;5075691;28;20212;-69
2023/03/30 05:40:17;;;;;;;7.25;3.10;;;12.20;98.30;;;;;;5076755;28;20185;-70
2023/03/30 05:42:44;;;;;;;8.00;4.43;;;12.20;98.20;;;;;;5075125;28;20258;-73
2023/03/30 05:45:11;;;;;;;13.23;3.78;;;12.20;98.40;;;;;;5075089;28;20192;-70
2023/03/30 05:47:38;;;;;;;8.52;4.38;;;12.10;98.40;;;;;;5077535;28;20548;-70
2023/03/30 05:50:10;;;;;;;8.10;3.80;;;12.10;98.80;;;;;;5077442;28;20194;-70
2023/03/30 05:52:38;;;;;;;12.15;4.10;;;12.10;98.80;;;;;;5077155;28;20190;-70
2023/03/30 05:55:07;;;;;;;7.18;3.10;;;12.10;98.70;;;;;;5077156;28;20280;-70
2023/03/30 05:57:35;;;;;;;5.60;2.30;;;12.20;98.60;;;;;;5077408;28;20273;-70
2023/03/30 06:00:05;;;;;;;6.43;2.50;;;12.20;98.60;;;;;;5077007;28;20281;-70
2023/03/30 06:02:32;;;;;;;9.10;2.53;;;12.20;98.30;;;;;;5076220;28;20645;-70
2023/03/30 06:05:00;;;;;;;8.13;2.80;;;12.20;98.50;;;;;;5076528;28;20555;-70
2023/03/30 06:07:28;;;;;;;8.82;3.47;;;12.20;98.30;;;;;;5074666;28;20185;-70
2023/03/30 06:10:11;;;;;;;8.75;2.97;;;12.20;98.50;;;;;;5075278;28;20227;-72
2023/03/30 06:12:40;;;;;;;9.27;3.17;;;12.20;98.40;;;;;;5075092;28;20281;-70
2023/03/30 06:15:12;;;;;;;7.85;2.55;;;12.30;98.50;;;;;;5077045;28;20232;-70
2023/03/30 06:17:41;;;;;;;8.73;2.90;;;12.30;98.40;;;;;;5076778;28;20313;-71
2023/03/30 06:20:13;;;;;;;9.55;4.10;;;12.40;98.20;;;;;;5077003;28;20204;-71
2023/03/30 06:22:41;;;;;;;23.05;3.22;;;12.50;97.90;;;;;;5077172;28;20224;-71
2023/03/30 06:25:09;;;;;;;8.05;2.10;;;12.40;98.10;;;;;;5076831;28;20237;-71
2023/03/30 06:27:38;;;;;;;7.07;3.45;;;12.50;98.00;;;;;;5076931;28;20727;-71
2023/03/30 06:30:08;;;;;;;12.48;3.60;;;12.50;97.90;;;;;;5076679;28;20276;-71
2023/03/30 06:32:35;;;;;;;5.70;2.50;;;12.50;97.90;;;;;;5076869;28;20283;-71
2023/03/30 06:35:04;;;;;;;12.85;3.38;;;12.50;97.60;;;;;;5073447;28;20284;-71
2023/03/30 06:37:36;;;;;;;10.18;2.72;;;12.60;97.60;;;;;;5073254;28;20190;-71
2023/03/30 06:40:07;;;;;;;12.93;3.45;;;12.60;97.10;;;;;;5073905;28;20225;-76
2023/03/30 06:42:40;;;;;;;9.18;4.30;;;12.60;96.90;;;;;;5073608;28;20224;-71
2023/03/30 06:45:09;;;;;;;12.30;4.05;;;12.60;96.60;;;;;;5069589;28;20230;-71
2023/03/30 06:47:36;;;;;;;7.15;2.47;;;12.60;96.70;;;;;;5073639;28;20672;-71
2023/03/30 06:50:03;;;;;;;14.48;5.32;;;12.60;97.10;;;;;;5073478;28;20263;-71
2023/03/30 06:52:33;;;;;;;24.52;9.73;;;12.60;97.30;;;;;;5073183;28;20293;-72
2023/03/30 06:55:00;;;;;;;11.02;5.60;;;12.60;97.00;;;;;;5072466;28;20609;-71
2023/03/30 06:57:28;;;;;;;16.00;10.95;;;12.70;96.50;;;;;;5073201;28;20556;-71
2023/03/30 06:59:56;;;;;;;12.32;4.30;;;12.80;96.50;;;;;;5073073;28;20216;-71
2023/03/30 07:02:24;;;;;;;10.23;4.07;;;13.00;96.60;;;;;;5073129;28;20308;-73
2023/03/30 07:04:51;;;;;;;13.38;3.78;;;13.20;95.40;;;;;;5073697;28;20190;-71
2023/03/30 07:07:18;;;;;;;10.18;5.35;;;13.30;95.10;;;;;;5073462;28;20285;-72
2023/03/30 07:09:46;;;;;;;12.13;4.40;;;13.40;95.00;;;;;;5071953;28;20186;-71
2023/03/30 07:12:13;;;;;;;20.83;7.67;;;13.50;94.70;;;;;;5065390;28;20230;-77
2023/03/30 07:14:40;;;;;;;8.13;4.22;;;13.70;94.10;;;;;;5064203;28;20536;-72
2023/03/30 07:17:08;;;;;;;9.15;2.22;;;13.90;92.90;;;;;;5069168;28;20539;-72
2023/03/30 07:19:36;;;;;;;7.60;2.30;;;14.00;90.80;;;;;;5072372;28;20189;-74
2023/03/30 07:22:03;;;;;;;9.90;2.67;;;14.10;90.00;;;;;;5072982;28;20480;-72
2023/03/30 07:24:35;;;;;;;7.17;2.37;;;14.10;89.50;;;;;;5071203;28;20444;-74
2023/03/30 07:27:02;;;;;;;7.60;3.80;;;14.10;87.80;;;;;;5072195;28;20519;-72
2023/03/30 07:29:29;;;;;;;9.60;4.57;;;14.10;86.70;;;;;;5070533;28;20435;-69
2023/03/30 07:31:56;;;;;;;7.10;2.80;;;14.20;86.60;;;;;;5072900;28;20433;-73
2023/03/30 07:34:24;;;;;;;8.83;3.53;;;14.30;84.40;;;;;;5069431;28;20443;-72
2023/03/30 07:36:51;;;;;;;6.33;3.27;;;14.20;85.40;;;;;;5071270;28;20531;-72
2023/03/30 07:39:18;;;;;;;6.53;2.77;;;14.30;85.90;;;;;;5070841;28;20859;-72
2023/03/30 07:41:46;;;;;;;7.23;3.37;;;14.40;86.20;;;;;;5071946;28;20564;-78
2023/03/30 07:44:13;;;;;;;9.53;3.07;;;14.40;86.20;;;;;;5071563;28;20432;-71
2023/03/30 07:46:41;;;;;;;4.87;2.57;;;14.50;86.40;;;;;;5071270;28;20923;-73
2023/03/30 07:49:08;;;;;;;10.10;2.53;;;14.60;85.30;;;;;;5072102;28;20503;-72
2023/03/30 07:51:37;;;;;;;11.70;3.23;;;14.70;84.00;;;;;;5071618;28;20463;-70
2023/03/30 07:54:04;;;;;;;7.27;2.90;;;14.80;82.70;;;;;;5071889;28;20444;-70
2023/03/30 07:56:32;;;;;;;8.10;2.97;;;14.80;82.60;;;;;;5071331;28;20501;-72
2023/03/30 07:59:00;;;;;;;7.60;2.83;;;14.90;83.50;;;;;;5071621;28;20424;-72
2023/03/30 08:01:27;;;;;;;5.87;2.00;;;15.00;83.70;;;;;;5072302;28;20479;-72
2023/03/30 08:03:53;;;;;;;9.23;1.50;;;15.20;84.30;;;;;;5072560;28;20515;-72
2023/03/30 08:06:21;;;;;;;6.07;3.37;;;15.40;83.60;;;;;;5072030;28;20527;-72
2023/03/30 08:08:49;;;;;;;8.60;3.30;;;15.60;79.90;;;;;;5072264;28;20466;-71
2023/03/30 08:11:16;;;;;;;8.63;3.17;;;16.00;79.80;;;;;;5070869;28;20763;-71
2023/03/30 08:13:44;;;;;;;11.43;3.83;;;16.40;79.40;;;;;;5071676;28;20475;-69
2023/03/30 08:16:12;;;;;;;12.13;6.30;;;16.80;77.00;;;;;;5067344;28;20435;-69
2023/03/30 08:18:41;;;;;;;15.10;8.20;;;16.90;74.10;;;;;;5071815;28;20444;-70
2023/03/30 08:21:10;;;;;;;9.60;4.37;;;17.00;74.30;;;;;;5071706;28;20486;-70
2023/03/30 08:23:37;;;;;;;8.90;7.33;;;17.10;73.50;;;;;;5071422;28;20440;-69
2023/03/30 08:26:06;;;;;;;9.50;4.97;;;17.10;72.00;;;;;;5071585;28;20492;-70
2023/03/30 08:28:34;;;;;;;9.90;6.13;;;17.00;70.50;;;;;;5072056;28;20436;-70
2023/03/30 08:31:05;;;;;;;7.67;3.57;;;16.90;71.60;;;;;;5071358;28;20801;-73
2023/03/30 08:33:33;;;;;;;11.77;4.67;;;16.80;72.80;;;;;;5067397;28;20439;-70
2023/03/30 08:36:03;;;;;;;10.03;3.40;;;16.60;72.60;;;;;;5069418;28;20963;-70
2023/03/30 08:38:30;;;;;;;9.80;4.13;;;16.40;73.60;;;;;;5070770;28;20451;-70
2023/03/30 08:40:58;;;;;;;4.77;2.30;;;16.40;75.20;;;;;;5068073;28;20424;-71
2023/03/30 08:43:46;;;;;;;9.23;2.33;;;16.40;76.10;;;;;;5070764;28;20551;-71
2023/03/30 08:46:15;;;;;;;9.10;2.30;;;16.30;76.60;;;;;;5064509;28;20435;-70
2023/03/30 08:48:43;;;;;;;6.50;2.40;;;16.30;77.30;;;;;;5070939;28;20490;-70
2023/03/30 08:51:20;;;;;;;6.10;2.47;;;16.40;77.50;;;;;;5071282;28;20440;-70
2023/03/30 08:53:50;;;;;;;4.23;2.40;;;16.40;77.00;;;;;;5068086;28;20485;-70
2023/03/30 08:56:21;;;;;;;5.33;2.83;;;16.30;76.90;;;;;;5071140;28;20507;-70
2023/03/30 08:58:59;;;;;;;4.63;2.40;;;16.40;77.70;;;;;;5063849;28;20674;-71
2023/03/30 09:01:31;;;;;;;7.47;2.70;;;16.30;78.40;;;;;;5068168;28;20519;-70
2023/03/30 09:04:17;;;;;;;9.83;4.43;;;16.30;78.60;;;;;;5065033;28;20469;-70
2023/03/30 09:06:50;;;;;;;10.13;5.43;;;16.30;78.90;;;;;;5068496;28;20954;-70
2023/03/30 09:09:19;;;;;;;10.70;5.40;;;16.30;79.80;;;;;;5069475;28;20977;-72
2023/03/30 09:11:50;;;;;;;6.97;4.47;;;16.40;79.80;;;;;;5068393;28;20765;-70
2023/03/30 09:14:27;;;;;;;8.40;3.20;;;16.50;79.10;;;;;;5069646;28;20513;-70
2023/03/30 09:16:58;;;;;;;9.63;3.43;;;16.60;77.00;;;;;;5067562;28;20933;-70
2023/03/30 09:19:33;;;;;;;13.00;3.20;;;16.90;75.90;;;;;;5069698;28;20787;-71
2023/03/30 09:22:04;;;;;;;13.43;3.67;;;17.60;75.60;;;;;;5068062;28;20573;-70
2023/03/30 09:24:32;;;;;;;10.27;2.93;;;18.50;71.00;;;;;;5066003;28;20440;-70
2023/03/30 09:27:02;;;;;;;23.10;2.67;;;19.00;63.80;;;;;;5066392;28;20478;-70
2023/03/30 09:29:37;;;;;;;9.73;3.77;;;19.40;59.40;;;;;;5066849;28;20459;-70
2023/03/30 09:32:13;;;;;;;17.27;4.50;;;20.70;53.80;;;;;;5069242;28;20442;-70
2023/03/30 09:34:46;;;;;;;8.47;2.47;;;21.60;50.80;;;;;;5066698;28;20446;-70
2023/03/30 09:37:17;;;;;;;19.10;3.30;;;22.00;47.60;;;;;;5067988;28;20435;-71
2023/03/30 09:39:46;;;;;;;17.23;4.07;;;21.90;44.30;;;;;;5067500;28;20444;-71
2023/03/30 09:42:27;;;;;;;15.13;4.03;;;21.50;45.00;;;;;;5069352;28;20537;-70
2023/03/30 09:45:00;;;;;;;21.67;3.00;;;21.20;45.90;;;;;;5068738;28;20440;-72
2023/03/30 09:47:34;;;;;;;10.93;3.03;;;21.00;47.20;;;;;;5065833;28;20439;-76
2023/03/30 09:50:03;;;;;;;8.60;2.93;;;20.90;48.10;;;;;;5068666;28;20436;-71
2023/03/30 09:52:35;;;;;;;13.40;3.10;;;20.80;47.00;;;;;;5066818;28;20432;-70
2023/03/30 09:55:18;;;;;;;6.93;2.37;;;20.70;46.40;;;;;;5069536;28;20570;-70
2023/03/30 09:57:45;;;;;;;19.33;4.10;;;20.60;46.00;;;;;;5069513;28;20540;-71
2023/03/30 10:00:26;;;;;;;13.50;3.60;;;21.40;46.20;;;;;;5069527;28;20878;-71
2023/03/30 10:02:58;;;;;;;14.80;2.80;;;24.80;43.10;;;;;;5069131;28;20479;-71
2023/03/30 10:05:26;;;;;;;10.20;2.60;;;26.00;37.30;;;;;;5064765;28;20933;-71
2023/03/30 10:07:55;;;;;;;13.47;3.20;;;25.80;37.10;;;;;;5069350;28;20463;-72
2023/03/30 10:10:33;;;;;;;8.43;3.07;;;28.50;34.00;;;;;;5067463;28;20515;-72
2023/03/30 10:13:05;;;;;;;15.43;3.17;;;29.70;30.60;;;;;;5071871;28;20445;-73
2023/03/30 10:15:38;;;;;;;10.60;2.80;;;29.20;29.80;;;;;;5073821;28;20458;-72
2023/03/30 10:18:24;;;;;;;11.70;2.73;;;28.40;30.00;;;;;;5074393;28;20440;-71
2023/03/30 10:20:53;;;;;;;8.10;2.80;;;27.60;30.50;;;;;;5074282;28;20447;-71
2023/03/30 10:23:23;;;;;;;7.17;4.07;;;26.50;30.80;;;;;;5074006;28;20483;-72
2023/03/30 10:25:50;;;;;;;13.90;3.30;;;25.40;31.90;;;;;;5074311;28;20432;-71
2023/03/30 10:28:23;;;;;;;14.13;3.43;;;24.50;33.70;;;;;;5074032;28;20439;-71
2023/03/30 10:30:54;;;;;;;6.80;2.63;;;23.70;35.10;;;;;;5073092;28;20444;-72
2023/03/30 10:33:22;;;;;;;14.00;2.73;;;23.00;36.50;;;;;;5073921;28;20535;-71
2023/03/30 10:35:54;;;;;;;9.33;3.50;;;22.40;36.30;;;;;;5069547;28;20951;-70
2023/03/30 10:38:21;;;;;;;15.73;3.27;;;21.80;37.60;;;;;;5073841;28;20779;-71
2023/03/30 10:40:54;;;;;;;11.53;3.20;;;21.40;38.30;;;;;;5073228;28;20440;-72
2023/03/30 10:43:27;;;;;;;10.87;2.80;;;21.00;39.30;;;;;;5069761;28;20490;-71
2023/03/30 10:45:58;;;;;;;13.30;2.90;;;20.80;40.20;;;;;;5073740;28;20523;-72
2023/03/30 10:48:42;;;;;;;9.63;2.30;;;20.50;40.70;;;;;;5073228;28;20520;-71
2023/03/30 10:51:18;;;;;;;10.60;2.97;;;20.30;40.90;;;;;;5072913;28;20444;-70
2023/03/30 10:53:52;;;;;;;9.80;3.70;;;20.20;41.40;;;;;;5069921;28;20443;-70
2023/03/30 10:56:30;;;;;;;8.13;2.63;;;20.20;41.60;;;;;;5073675;28;20432;-70
2023/03/30 10:59:26;;;;;;;10.97;2.50;;;20.40;41.70;;;;;;5069578;28;20440;-70
2023/03/30 11:02:17;;;;;;;17.40;2.80;;;20.30;42.10;;;;;;5059658;28;20480;-70
2023/03/30 11:04:47;;;;;;;10.33;3.57;;;20.20;42.20;;;;;;5070295;28;20442;-71
2023/03/30 11:07:22;;;;;;;17.77;3.97;;;19.90;43.00;;;;;;5073086;28;20440;-70
2023/03/30 11:09:55;;;;;;;10.30;2.60;;;19.70;43.90;;;;;;5049073;28;20925;-71
2023/03/30 11:12:29;;;;;;;14.47;2.93;;;19.50;44.40;;;;;;5053141;28;20467;-70
2023/03/30 11:15:01;;;;;;;11.77;3.10;;;19.20;45.10;;;;;;5052499;28;20495;-70
2023/03/30 11:17:34;;;;;;;13.27;2.90;;;19.00;45.60;;;;;;5052880;28;20541;-70
2023/03/30 11:20:22;;;;;;;18.93;3.60;;;18.80;46.00;;;;;;5052589;28;20520;-71
2023/03/30 11:22:53;;;;;;;10.23;2.17;;;18.60;46.20;;;;;;5048437;28;20477;-70
2023/03/30 11:25:25;;;;;;;8.33;2.87;;;18.50;47.20;;;;;;5047004;28;20476;-70
2023/03/30 11:27:59;;;;;;;10.57;3.50;;;18.30;48.80;;;;;;5049035;28;20460;-70
2023/03/30 11:30:32;;;;;;;10.13;2.47;;;18.20;48.20;;;;;;5052151;28;20463;-70
2023/03/30 11:33:08;;;;;;;9.90;2.87;;;18.10;49.00;;;;;;5048228;28;20524;-70
2023/03/30 11:35:40;;;;;;;13.30;2.30;;;18.00;49.70;;;;;;5047117;28;20444;-70
2023/03/30 11:38:12;;;;;;;13.13;2.60;;;18.00;50.20;;;;;;5048710;28;20448;-70
2023/03/30 11:40:44;;;;;;;9.53;3.00;;;18.10;50.30;;;;;;5052278;28;20469;-70
2023/03/30 11:43:19;;;;;;;14.37;3.57;;;18.10;50.50;;;;;;5052178;28;20858;-71
2023/03/30 11:46:02;;;;;;;10.70;3.27;;;18.00;51.80;;;;;;5052862;28;20491;-71
2023/03/30 11:48:58;;;;;;;8.30;2.67;;;17.90;53.20;;;;;;5052595;28;20453;-72
2023/03/30 11:51:39;;;;;;;13.30;2.87;;;17.80;54.80;;;;;;5052158;28;20433;-71
2023/03/30 11:54:38;;;;;;;11.50;3.30;;;17.60;55.50;;;;;;5052039;28;20785;-72
2023/03/30 11:57:14;;;;;;;7.83;2.90;;;17.50;57.00;;;;;;5043036;28;20433;-71
2023/03/30 11:59:56;;;;;;;7.80;2.80;;;17.30;58.60;;;;;;5052469;28;20528;-71
2023/03/30 12:02:37;;;;;;;10.23;2.80;;;17.20;59.70;;;;;;5052490;28;20473;-71
2023/03/30 12:05:16;;;;;;;6.93;2.53;;;16.90;61.60;;;;;;5051469;28;20428;-72
2023/03/30 12:07:52;;;;;;;9.90;2.70;;;16.70;63.90;;;;;;5056168;28;20533;-71
2023/03/30 12:10:40;;;;;;;10.17;3.57;;;16.50;66.00;;;;;;5071568;28;20518;-71
2023/03/30 12:13:12;;;;;;;6.30;3.20;;;16.40;67.70;;;;;;5071599;28;20432;-71
2023/03/30 12:15:48;;;;;;;9.40;2.90;;;16.20;70.10;;;;;;5072020;28;20467;-71
2023/03/30 12:18:32;;;;;;;10.77;6.20;;;16.00;72.80;;;;;;5072279;28;20467;-70
2023/03/30 12:21:18;;;;;;;9.10;4.00;;;15.90;74.90;;;;;;5069620;28;20866;-71
2023/03/30 12:23:55;;;;;;;14.70;4.03;;;15.80;75.90;;;;;;5068668;28;20570;-70
2023/03/30 12:26:37;;;;;;;4.97;3.30;;;15.70;77.50;;;;;;5071833;28;20810;-71
2023/03/30 12:29:15;;;;;;;5.83;3.13;;;15.50;79.70;;;;;;5071189;28;20436;-71
2023/03/30 12:32:19;;;;;;;11.90;3.80;;;15.50;81.00;;;;;;5071205;28;20812;-70
2023/03/30 12:34:51;;;;;;;10.50;3.33;;;15.30;81.80;;;;;;5027574;28;20485;-71
2023/03/30 12:37:22;;;;;;;11.07;4.33;;;15.30;83.20;;;;;;5071482;28;20440;-72
2023/03/30 12:39:56;;;;;;;9.77;2.93;;;15.20;84.00;;;;;;5066903;28;20969;-71
2023/03/30 12:42:52;;;;;;;6.70;2.07;;;15.20;84.00;;;;;;5071450;28;20436;-71
2023/03/30 12:45:31;;;;;;;6.20;2.77;;;15.10;82.40;;;;;;5071193;28;20531;-71
2023/03/30 12:48:20;;;;;;;6.10;2.47;;;15.00;80.50;;;;;;5067862;28;20519;-70
2023/03/30 12:50:59;;;;;;;5.07;2.50;;;14.90;78.90;;;;;;5067102;28;20447;-71
2023/03/30 12:54:07;;;;;;;6.00;1.97;;;14.80;81.30;;;;;;5071221;28;20505;-71
2023/03/30 12:56:42;;;;;;;6.33;3.40;;;14.70;81.60;;;;;;5056025;28;20448;-71
2023/03/30 12:59:23;;;;;;;6.90;2.90;;;14.60;82.10;;;;;;5071244;28;20497;-71
2023/03/30 13:02:00;;;;;;;8.80;2.10;;;14.60;82.10;;;;;;5067658;28;20533;-71
2023/03/30 13:04:33;;;;;;;12.37;2.50;;;14.60;82.30;;;;;;5070938;28;20704;-70
2023/03/30 13:07:04;;;;;;;5.20;2.00;;;14.50;83.20;;;;;;5067737;28;20481;-70
2023/03/30 13:09:53;;;;;;;5.57;2.47;;;14.50;84.80;;;;;;5071182;28;20499;-71
2023/03/30 13:12:33;;;;;;;4.87;2.70;;;14.50;84.80;;;;;;5067857;28;20440;-71
2023/03/30 13:15:03;;;;;;;5.40;1.90;;;14.40;85.30;;;;;;5070513;28;20470;-72